Wetterdaten: Mittwoch, 21.07.2010
Datum Zeit Temp. A. Feuchte A. Luftdruck Regen Wind Richtung Richtung Sonnenschein UV Solar Windben
21.07.2010 00:00 20,7 C 53 % 1009,5 hPa 0,0 mm 0,0 km/h (0 Bft) O-SO 112 0 min 0 UV-I 0 W/m 3,2 km/h (1 Bft)
21.07.2010 00:10 20,7 C 54 % 1009,3 hPa 0,0 mm 0,0 km/h (0 Bft) O-SO 112 0 min 0 UV-I 0 W/m 4,8 km/h (1 Bft)
21.07.2010 00:20 20,7 C 54 % 1009,4 hPa 0,0 mm 0,0 km/h (0 Bft) O-SO 112 0 min 0 UV-I 0 W/m 3,2 km/h (1 Bft)
21.07.2010 00:30 20,4 C 55 % 1009,4 hPa 0,0 mm 0,0 km/h (0 Bft) O-SO 112 0 min 0 UV-I 0 W/m 3,2 km/h (1 Bft)
21.07.2010 00:40 20,3 C 56 % 1009,4 hPa 0,0 mm 0,0 km/h (0 Bft) O-SO 112 0 min 0 UV-I 0 W/m 4,8 km/h (1 Bft)
21.07.2010 00:50 20,2 C 56 % 1009,3 hPa 0,0 mm 0,0 km/h (0 Bft) O-SO 112 0 min 0 UV-I 0 W/m 3,2 km/h (1 Bft)
21.07.2010 01:00 20,1 C 57 % 1009,3 hPa 0,0 mm 0,0 km/h (0 Bft) O-SO 112 0 min 0 UV-I 0 W/m 3,2 km/h (1 Bft)
21.07.2010 01:10 20,1 C 57 % 1009,2 hPa 0,0 mm 0,0 km/h (0 Bft) O-SO 112 0 min 0 UV-I 0 W/m 3,2 km/h (1 Bft)
21.07.2010 01:20 20,1 C 58 % 1009,1 hPa 0,0 mm 0,0 km/h (0 Bft) O-SO 112 0 min 0 UV-I 0 W/m 3,2 km/h (1 Bft)
21.07.2010 01:30 19,9 C 59 % 1008,9 hPa 0,0 mm 0,0 km/h (0 Bft) O-SO 112 0 min 0 UV-I 0 W/m 3,2 km/h (1 Bft)
21.07.2010 01:40 19,8 C 60 % 1008,9 hPa 0,0 mm 0,0 km/h (0 Bft) O-SO 112 0 min 0 UV-I 0 W/m 3,2 km/h (1 Bft)
21.07.2010 01:50 19,8 C 61 % 1008,8 hPa 0,0 mm 1,6 km/h (1 Bft) O-SO 112 0 min 0 UV-I 0 W/m 8,0 km/h (2 Bft)
21.07.2010 02:00 19,9 C 61 % 1008,7 hPa 0,0 mm 1,6 km/h (1 Bft) SO 135 0 min 0 UV-I 0 W/m 6,4 km/h (2 Bft)
21.07.2010 02:10 19,9 C 61 % 1008,5 hPa 0,0 mm 0,0 km/h (0 Bft) SO 135 0 min 0 UV-I 0 W/m 3,2 km/h (1 Bft)
21.07.2010 02:20 19,8 C 62 % 1008,3 hPa 0,0 mm 1,6 km/h (1 Bft) SO 135 0 min 0 UV-I 0 W/m 6,4 km/h (2 Bft)
21.07.2010 02:30 19,9 C 62 % 1008,2 hPa 0,0 mm 1,6 km/h (1 Bft) O-SO 112 0 min 0 UV-I 0 W/m 6,4 km/h (2 Bft)
21.07.2010 02:40 20,2 C 62 % 1008,1 hPa 0,0 mm 1,6 km/h (1 Bft) O-SO 112 0 min 0 UV-I 0 W/m 11,3 km/h (2 Bft)
21.07.2010 02:50 20,3 C 61 % 1008,0 hPa 0,0 mm 1,6 km/h (1 Bft) O-SO 112 0 min 0 UV-I 0 W/m 6,4 km/h (2 Bft)
21.07.2010 03:00 20,2 C 62 % 1007,9 hPa 0,0 mm 1,6 km/h (1 Bft) O-SO 112 0 min 0 UV-I 0 W/m 6,4 km/h (2 Bft)
21.07.2010 03:10 20,1 C 63 % 1007,9 hPa 0,0 mm 1,6 km/h (1 Bft) O-SO 112 0 min 0 UV-I 0 W/m 6,4 km/h (2 Bft)
21.07.2010 03:20 19,9 C 64 % 1007,9 hPa 0,0 mm 1,6 km/h (1 Bft) O 90 0 min 0 UV-I 0 W/m 6,4 km/h (2 Bft)
21.07.2010 03:30 19,8 C 64 % 1007,8 hPa 0,0 mm 1,6 km/h (1 Bft) O 90 0 min 0 UV-I 0 W/m 6,4 km/h (2 Bft)
21.07.2010 03:40 19,7 C 65 % 1007,6 hPa 0,0 mm 1,6 km/h (1 Bft) O-SO 112 0 min 0 UV-I 0 W/m 8,0 km/h (2 Bft)
21.07.2010 03:50 19,6 C 66 % 1007,6 hPa 0,0 mm 0,0 km/h (0 Bft) O-SO 112 0 min 0 UV-I 0 W/m 4,8 km/h (1 Bft)
21.07.2010 04:00 19,3 C 66 % 1007,5 hPa 0,0 mm 0,0 km/h (0 Bft) O-SO 112 0 min 0 UV-I 0 W/m 1,6 km/h (1 Bft)
21.07.2010 04:10 18,9 C 68 % 1007,4 hPa 0,0 mm 0,0 km/h (0 Bft) N 0 0 min 0 UV-I 0 W/m 0,0 km/h (0 Bft)
21.07.2010 04:20 18,6 C 69 % 1007,3 hPa 0,0 mm 0,0 km/h (0 Bft) O-SO 112 0 min 0 UV-I 0 W/m 1,6 km/h (1 Bft)
21.07.2010 04:30 18,6 C 70 % 1007,4 hPa 0,0 mm 0,0 km/h (0 Bft) O-SO 112 0 min 0 UV-I 0 W/m 1,6 km/h (1 Bft)
21.07.2010 04:40 18,5 C 70 % 1007,2 hPa 0,0 mm 0,0 km/h (0 Bft) O-SO 112 0 min 0 UV-I 0 W/m 1,6 km/h (1 Bft)
21.07.2010 04:50 18,4 C 70 % 1007,1 hPa 0,0 mm 0,0 km/h (0 Bft) O-SO 112 0 min 0 UV-I 0 W/m 4,8 km/h (1 Bft)
21.07.2010 05:00 18,4 C 71 % 1007,1 hPa 0,0 mm 0,0 km/h (0 Bft) O-SO 112 0 min 0 UV-I 0 W/m 3,2 km/h (1 Bft)
21.07.2010 05:10 18,5 C 70 % 1007,0 hPa 0,0 mm 1,6 km/h (1 Bft) O-SO 112 0 min 0 UV-I 0 W/m 4,8 km/h (1 Bft)
21.07.2010 05:20 18,6 C 70 % 1007,1 hPa 0,0 mm 0,0 km/h (0 Bft) O-SO 112 0 min 0 UV-I 0 W/m 4,8 km/h (1 Bft)
21.07.2010 05:30 18,5 C 70 % 1007,0 hPa 0,0 mm 0,0 km/h (0 Bft) O-SO 112 0 min 0 UV-I 0 W/m 6,4 km/h (2 Bft)
21.07.2010 05:40 18,6 C 70 % 1006,8 hPa 0,0 mm 1,6 km/h (1 Bft) O-SO 112 0 min 0 UV-I 5 W/m 6,4 km/h (2 Bft)
21.07.2010 05:50 18,7 C 70 % 1006,6 hPa 0,0 mm 1,6 km/h (1 Bft) O-SO 112 0 min 0 UV-I 11 W/m 4,8 km/h (1 Bft)
21.07.2010 06:00 18,6 C 70 % 1006,7 hPa 0,0 mm 0,0 km/h (0 Bft) O 90 0 min 0 UV-I 16 W/m 4,8 km/h (1 Bft)
21.07.2010 06:10 18,6 C 70 % 1006,6 hPa 0,0 mm 1,6 km/h (1 Bft) O-SO 112 0 min 0 UV-I 25 W/m 6,4 km/h (2 Bft)
21.07.2010 06:20 18,7 C 70 % 1006,7 hPa 0,0 mm 1,6 km/h (1 Bft) O-SO 112 0 min 0 UV-I 33 W/m 6,4 km/h (2 Bft)
21.07.2010 06:30 18,9 C 70 % 1006,7 hPa 0,0 mm 0,0 km/h (0 Bft) O-SO 112 0 min 0 UV-I 46 W/m 4,8 km/h (1 Bft)
21.07.2010 06:40 19,2 C 69 % 1006,7 hPa 0,0 mm 1,6 km/h (1 Bft) O-SO 112 0 min 0 UV-I 49 W/m 4,8 km/h (1 Bft)
21.07.2010 06:50 19,4 C 68 % 1006,8 hPa 0,0 mm 0,0 km/h (0 Bft) O-SO 112 0 min 0 UV-I 62 W/m 6,4 km/h (2 Bft)
21.07.2010 07:00 19,7 C 68 % 1006,6 hPa 0,0 mm 0,0 km/h (0 Bft) O-SO 112 10 min 1 UV-I 116 W/m 6,4 km/h (2 Bft)
21.07.2010 07:10 20,1 C 67 % 1006,7 hPa 0,0 mm 0,0 km/h (0 Bft) O-SO 112 10 min 1 UV-I 120 W/m 3,2 km/h (1 Bft)
21.07.2010 07:20 20,4 C 65 % 1006,6 hPa 0,0 mm 0,0 km/h (0 Bft) S-SO 157 10 min 1 UV-I 146 W/m 3,2 km/h (1 Bft)
21.07.2010 07:30 20,8 C 63 % 1006,7 hPa 0,0 mm 0,0 km/h (0 Bft) O-SO 112 10 min 1 UV-I 179 W/m 8,0 km/h (2 Bft)
21.07.2010 07:40 21,3 C 62 % 1006,5 hPa 0,0 mm 0,0 km/h (0 Bft) O-SO 112 10 min 1 UV-I 200 W/m 4,8 km/h (1 Bft)
21.07.2010 07:50 21,7 C 61 % 1006,5 hPa 0,0 mm 1,6 km/h (1 Bft) O-NO 67 10 min 1 UV-I 230 W/m 8,0 km/h (2 Bft)
21.07.2010 08:00 22,3 C 58 % 1006,4 hPa 0,0 mm 2,2 km/h (1 Bft) SO 136 10 min 1 UV-I 266 W/m 6,4 km/h (2 Bft)
21.07.2010 08:10 22,9 C 56 % 1006,4 hPa 0,0 mm 3,2 km/h (1 Bft) S-SO 157 10 min 1 UV-I 308 W/m 14,5 km/h (3 Bft)
21.07.2010 08:20 23,4 C 55 % 1006,4 hPa 0,0 mm 3,2 km/h (1 Bft) S-SO 157 10 min 1 UV-I 308 W/m 11,3 km/h (2 Bft)
21.07.2010 08:30 23,8 C 54 % 1006,4 hPa 0,0 mm 3,2 km/h (1 Bft) O-SO 112 10 min 2 UV-I 357 W/m 8,0 km/h (2 Bft)
21.07.2010 08:40 24,3 C 53 % 1006,4 hPa 0,0 mm 3,2 km/h (1 Bft) O-SO 112 10 min 2 UV-I 387 W/m 11,3 km/h (2 Bft)
21.07.2010 08:50 24,6 C 52 % 1006,3 hPa 0,0 mm 3,2 km/h (1 Bft) O-SO 112 10 min 2 UV-I 396 W/m 11,3 km/h (2 Bft)
21.07.2010 09:00 25,2 C 50 % 1006,3 hPa 0,0 mm 3,2 km/h (1 Bft) O-SO 112 10 min 2 UV-I 432 W/m 14,5 km/h (3 Bft)
21.07.2010 09:10 25,7 C 51 % 1006,2 hPa 0,0 mm 3,2 km/h (1 Bft) SO 135 10 min 2 UV-I 461 W/m 9,7 km/h (2 Bft)
21.07.2010 09:20 26,1 C 49 % 1006,1 hPa 0,0 mm 3,2 km/h (1 Bft) SO 135 10 min 3 UV-I 482 W/m 8,0 km/h (2 Bft)
21.07.2010 09:30 26,3 C 48 % 1006,0 hPa 0,0 mm 4,8 km/h (1 Bft) S 180 10 min 3 UV-I 513 W/m 16,1 km/h (3 Bft)
21.07.2010 09:40 27,1 C 47 % 1006,0 hPa 0,0 mm 3,2 km/h (1 Bft) SO 135 10 min 3 UV-I 536 W/m 12,9 km/h (3 Bft)
21.07.2010 09:50 27,4 C 46 % 1006,1 hPa 0,0 mm 4,8 km/h (1 Bft) S 180 10 min 3 UV-I 559 W/m 16,1 km/h (3 Bft)
21.07.2010 10:00 27,8 C 45 % 1005,9 hPa 0,0 mm 3,2 km/h (1 Bft) S-SW 202 10 min 4 UV-I 585 W/m 12,9 km/h (3 Bft)
21.07.2010 10:10 28,2 C 45 % 1005,9 hPa 0,0 mm 3,2 km/h (1 Bft) S 180 10 min 4 UV-I 606 W/m 16,1 km/h (3 Bft)
21.07.2010 10:20 28,5 C 46 % 1005,9 hPa 0,0 mm 1,6 km/h (1 Bft) S-SW 202 10 min 4 UV-I 633 W/m 9,7 km/h (2 Bft)
21.07.2010 10:30 28,6 C 44 % 1006,0 hPa 0,0 mm 4,8 km/h (1 Bft) S-SW 202 10 min 5 UV-I 654 W/m 16,1 km/h (3 Bft)
21.07.2010 10:40 28,8 C 43 % 1005,9 hPa 0,0 mm 3,2 km/h (1 Bft) S 180 10 min 5 UV-I 679 W/m 14,5 km/h (3 Bft)
21.07.2010 10:50 29,2 C 43 % 1005,9 hPa 0,0 mm 4,8 km/h (1 Bft) S-SW 202 10 min 5 UV-I 698 W/m 16,1 km/h (3 Bft)
21.07.2010 11:00 29,9 C 41 % 1005,8 hPa 0,0 mm 4,8 km/h (1 Bft) SO 135 10 min 5 UV-I 722 W/m 16,1 km/h (3 Bft)
21.07.2010 11:10 30,0 C 41 % 1005,7 hPa 0,0 mm 3,2 km/h (1 Bft) S-SW 202 10 min 6 UV-I 726 W/m 9,7 km/h (2 Bft)
21.07.2010 11:20 30,5 C 41 % 1005,7 hPa 0,0 mm 3,2 km/h (1 Bft) S-SW 202 10 min 6 UV-I 758 W/m 9,7 km/h (2 Bft)
21.07.2010 11:30 30,3 C 39 % 1005,7 hPa 0,0 mm 3,2 km/h (1 Bft) O-SO 112 10 min 6 UV-I 779 W/m 12,9 km/h (3 Bft)
21.07.2010 11:40 30,1 C 40 % 1005,8 hPa 0,0 mm 1,6 km/h (1 Bft) W-SW 247 10 min 6 UV-I 782 W/m 8,0 km/h (2 Bft)
21.07.2010 11:50 30,4 C 40 % 1005,7 hPa 0,0 mm 3,2 km/h (1 Bft) S-SO 157 10 min 6 UV-I 788 W/m 14,5 km/h (3 Bft)
21.07.2010 12:00 31,3 C 38 % 1005,7 hPa 0,0 mm 3,2 km/h (1 Bft) S 180 10 min 7 UV-I 846 W/m 9,7 km/h (2 Bft)
21.07.2010 12:10 31,1 C 40 % 1005,5 hPa 0,0 mm 3,2 km/h (1 Bft) W-SW 247 10 min 7 UV-I 809 W/m 9,7 km/h (2 Bft)
21.07.2010 12:20 31,5 C 39 % 1005,4 hPa 0,0 mm 1,6 km/h (1 Bft) N-NO 22 10 min 7 UV-I 826 W/m 6,4 km/h (2 Bft)
21.07.2010 12:30 31,3 C 39 % 1005,4 hPa 0,0 mm 1,6 km/h (1 Bft) N 360 10 min 7 UV-I 849 W/m 6,4 km/h (2 Bft)
21.07.2010 12:40 31,4 C 38 % 1005,3 hPa 0,0 mm 1,6 km/h (1 Bft) N 360 10 min 7 UV-I 860 W/m 8,0 km/h (2 Bft)
21.07.2010 12:50 31,7 C 37 % 1005,1 hPa 0,0 mm 1,6 km/h (1 Bft) N 360 10 min 7 UV-I 858 W/m 6,4 km/h (2 Bft)
21.07.2010 13:00 31,6 C 36 % 1005,2 hPa 0,0 mm 1,6 km/h (1 Bft) NO 45 10 min 7 UV-I 849 W/m 6,4 km/h (2 Bft)
21.07.2010 13:10 32,7 C 37 % 1005,0 hPa 0,0 mm 1,6 km/h (1 Bft) S 180 10 min 7 UV-I 868 W/m 6,4 km/h (2 Bft)
21.07.2010 13:20 33,5 C 36 % 1004,9 hPa 0,0 mm 3,2 km/h (1 Bft) O-NO 67 10 min 7 UV-I 874 W/m 6,4 km/h (2 Bft)
21.07.2010 13:30 32,9 C 37 % 1005,0 hPa 0,0 mm 1,6 km/h (1 Bft) O-SO 112 10 min 7 UV-I 868 W/m 8,0 km/h (2 Bft)
21.07.2010 13:40 33,1 C 36 % 1004,9 hPa 0,0 mm 1,6 km/h (1 Bft) O-SO 112 10 min 7 UV-I 868 W/m 6,4 km/h (2 Bft)
21.07.2010 13:50 32,8 C 35 % 1004,9 hPa 0,0 mm 1,6 km/h (1 Bft) N 360 10 min 7 UV-I 896 W/m 8,0 km/h (2 Bft)
21.07.2010 14:00 32,3 C 38 % 1004,8 hPa 0,0 mm 3,2 km/h (1 Bft) N-NW 337 10 min 7 UV-I 942 W/m 9,7 km/h (2 Bft)
21.07.2010 14:10 32,8 C 34 % 1005,0 hPa 0,0 mm 1,6 km/h (1 Bft) N-NW 337 10 min 7 UV-I 923 W/m 6,4 km/h (2 Bft)
21.07.2010 14:20 33,1 C 33 % 1004,9 hPa 0,0 mm 1,6 km/h (1 Bft) N 360 10 min 7 UV-I 951 W/m 6,4 km/h (2 Bft)
21.07.2010 14:30 33,0 C 35 % 1004,7 hPa 0,0 mm 1,6 km/h (1 Bft) NW 315 10 min 6 UV-I 919 W/m 4,8 km/h (1 Bft)
21.07.2010 14:40 32,6 C 36 % 1004,8 hPa 0,0 mm 1,6 km/h (1 Bft) N-NW 337 0 min 6 UV-I 439 W/m 6,4 km/h (2 Bft)
21.07.2010 14:50 33,9 C 33 % 1004,8 hPa 0,0 mm 3,2 km/h (1 Bft) N-NW 337 10 min 6 UV-I 930 W/m 11,3 km/h (2 Bft)
21.07.2010 15:00 34,3 C 32 % 1004,7 hPa 0,0 mm 3,2 km/h (1 Bft) SW 225 10 min 6 UV-I 926 W/m 12,9 km/h (3 Bft)
21.07.2010 15:10 33,9 C 32 % 1004,8 hPa 0,0 mm 4,8 km/h (1 Bft) SW 225 10 min 5 UV-I 872 W/m 17,7 km/h (3 Bft)
21.07.2010 15:20 33,1 C 34 % 1004,9 hPa 0,0 mm 3,2 km/h (1 Bft) W 270 0 min 3 UV-I 265 W/m 11,3 km/h (2 Bft)
21.07.2010 15:30 32,6 C 33 % 1005,0 hPa 0,0 mm 4,8 km/h (1 Bft) W-SW 247 0 min 3 UV-I 297 W/m 14,5 km/h (3 Bft)
21.07.2010 15:40 32,4 C 35 % 1005,0 hPa 0,0 mm 8,0 km/h (2 Bft) W-SW 247 0 min 3 UV-I 387 W/m 22,5 km/h (4 Bft)
21.07.2010 15:50 32,2 C 35 % 1005,0 hPa 0,0 mm 8,0 km/h (2 Bft) W 270 10 min 3 UV-I 410 W/m 19,3 km/h (3 Bft)
21.07.2010 16:00 31,7 C 36 % 1005,4 hPa 0,0 mm 14,5 km/h (3 Bft) W-SW 240 0 min 2 UV-I 203 W/m 24,1 km/h (4 Bft)
21.07.2010 16:10 31,2 C 38 % 1005,4 hPa 0,0 mm 6,4 km/h (2 Bft) W-NW 292 0 min 2 UV-I 227 W/m 17,7 km/h (3 Bft)
21.07.2010 16:20 31,0 C 38 % 1005,5 hPa 0,0 mm 8,0 km/h (2 Bft) W 270 0 min 2 UV-I 309 W/m 20,9 km/h (4 Bft)
21.07.2010 16:30 30,8 C 39 % 1005,5 hPa 0,0 mm 8,0 km/h (2 Bft) W 270 0 min 2 UV-I 227 W/m 19,3 km/h (3 Bft)
21.07.2010 16:40 30,7 C 39 % 1005,6 hPa 0,0 mm 5,8 km/h (2 Bft) W 266 0 min 2 UV-I 203 W/m 14,5 km/h (3 Bft)
21.07.2010 16:50 30,7 C 39 % 1005,7 hPa 0,0 mm 4,5 km/h (1 Bft) W 265 0 min 2 UV-I 190 W/m 11,3 km/h (2 Bft)
21.07.2010 17:00 30,7 C 39 % 1005,6 hPa 0,0 mm 3,2 km/h (1 Bft) W-SW 252 0 min 1 UV-I 171 W/m 11,3 km/h (2 Bft)
21.07.2010 17:10 30,6 C 39 % 1005,6 hPa 0,0 mm 4,2 km/h (1 Bft) W 265 0 min 1 UV-I 181 W/m 16,1 km/h (3 Bft)
21.07.2010 17:20 30,7 C 38 % 1005,7 hPa 0,0 mm 7,6 km/h (2 Bft) SW 216 0 min 2 UV-I 267 W/m 25,7 km/h (4 Bft)
21.07.2010 17:30 30,7 C 38 % 1005,8 hPa 0,0 mm 8,1 km/h (2 Bft) W 259 10 min 2 UV-I 335 W/m 22,5 km/h (4 Bft)
21.07.2010 17:40 31,2 C 37 % 1005,8 hPa 0,0 mm 6,7 km/h (2 Bft) W 274 10 min 2 UV-I 481 W/m 25,7 km/h (4 Bft)
21.07.2010 17:50 31,4 C 35 % 1005,8 hPa 0,0 mm 7,6 km/h (2 Bft) NW 307 10 min 2 UV-I 525 W/m 22,5 km/h (4 Bft)
21.07.2010 18:00 31,1 C 36 % 1005,8 hPa 0,0 mm 7,4 km/h (2 Bft) W-NW 295 10 min 2 UV-I 451 W/m 17,7 km/h (3 Bft)
21.07.2010 18:10 30,7 C 36 % 1006,0 hPa 0,0 mm 6,8 km/h (2 Bft) W-NW 284 10 min 2 UV-I 287 W/m 20,9 km/h (4 Bft)
21.07.2010 18:20 30,2 C 37 % 1006,0 hPa 0,0 mm 3,8 km/h (1 Bft) W-NW 299 0 min 1 UV-I 171 W/m 9,7 km/h (2 Bft)
21.07.2010 18:30 29,8 C 39 % 1006,1 hPa 0,0 mm 2,7 km/h (1 Bft) NW 323 0 min 1 UV-I 132 W/m 14,5 km/h (3 Bft)
21.07.2010 18:40 29,9 C 39 % 1006,0 hPa 0,0 mm 2,4 km/h (1 Bft) W-NW 286 0 min 1 UV-I 186 W/m 11,3 km/h (2 Bft)
21.07.2010 18:50 29,8 C 39 % 1006,1 hPa 0,0 mm 2,3 km/h (1 Bft) W 276 0 min 1 UV-I 126 W/m 6,4 km/h (2 Bft)
21.07.2010 19:00 29,7 C 40 % 1006,2 hPa 0,0 mm 1,7 km/h (1 Bft) W-NW 300 0 min 1 UV-I 112 W/m 11,3 km/h (2 Bft)
21.07.2010 19:10 29,4 C 40 % 1006,3 hPa 0,0 mm 1,3 km/h (1 Bft) W-NW 287 0 min 1 UV-I 78 W/m 6,4 km/h (2 Bft)
21.07.2010 19:20 29,2 C 41 % 1006,4 hPa 0,0 mm 1,2 km/h (1 Bft) NW 306 0 min 1 UV-I 73 W/m 9,7 km/h (2 Bft)
21.07.2010 19:30 28,9 C 42 % 1006,6 hPa 0,0 mm 4,7 km/h (1 Bft) W 281 0 min 1 UV-I 70 W/m 19,3 km/h (3 Bft)
21.07.2010 19:40 28,4 C 42 % 1006,7 hPa 0,0 mm 8,1 km/h (2 Bft) NW 310 0 min 0 UV-I 70 W/m 22,5 km/h (4 Bft)
21.07.2010 19:50 28,1 C 43 % 1006,8 hPa 0,0 mm 5,0 km/h (1 Bft) N-NW 329 0 min 0 UV-I 62 W/m 19,3 km/h (3 Bft)
21.07.2010 20:00 27,7 C 44 % 1006,8 hPa 0,0 mm 5,5 km/h (1 Bft) W-NW 303 0 min 0 UV-I 48 W/m 17,7 km/h (3 Bft)
21.07.2010 20:10 27,3 C 46 % 1006,8 hPa 0,0 mm 5,3 km/h (1 Bft) W-NW 287 0 min 0 UV-I 44 W/m 19,3 km/h (3 Bft)
21.07.2010 20:20 27,1 C 46 % 1006,9 hPa 0,0 mm 4,1 km/h (1 Bft) W 265 0 min 0 UV-I 17 W/m 16,1 km/h (3 Bft)
21.07.2010 20:30 26,9 C 47 % 1007,1 hPa 0,0 mm 1,9 km/h (1 Bft) W 281 0 min 0 UV-I 11 W/m 8,0 km/h (2 Bft)
21.07.2010 20:40 26,6 C 47 % 1007,5 hPa 0,0 mm 3,0 km/h (1 Bft) W-SW 247 0 min 0 UV-I 7 W/m 11,3 km/h (2 Bft)
21.07.2010 20:50 26,3 C 48 % 1007,5 hPa 0,0 mm 4,1 km/h (1 Bft) W-SW 248 0 min 0 UV-I 5 W/m 17,7 km/h (3 Bft)
21.07.2010 21:00 26,0 C 49 % 1007,4 hPa 0,0 mm 4,0 km/h (1 Bft) W 271 0 min 0 UV-I 3 W/m 14,5 km/h (3 Bft)
21.07.2010 21:10 25,9 C 50 % 1007,1 hPa 0,0 mm 1,8 km/h (1 Bft) W-NW 290 0 min 0 UV-I 0 W/m 8,0 km/h (2 Bft)
21.07.2010 21:20 25,7 C 50 % 1007,2 hPa 0,0 mm 0,7 km/h (0 Bft) W 280 0 min 0 UV-I 0 W/m 4,8 km/h (1 Bft)
21.07.2010 21:30 25,6 C 51 % 1007,2 hPa 0,0 mm 0,9 km/h (0 Bft) W 275 0 min 0 UV-I 0 W/m 6,4 km/h (2 Bft)
21.07.2010 21:40 25,4 C 52 % 1007,5 hPa 0,0 mm 1,0 km/h (0 Bft) W 269 0 min 0 UV-I 0 W/m 4,8 km/h (1 Bft)
21.07.2010 21:50 25,2 C 53 % 1007,6 hPa 0,0 mm 1,9 km/h (1 Bft) W-SW 252 0 min 0 UV-I 0 W/m 6,4 km/h (2 Bft)
21.07.2010 22:00 24,9 C 54 % 1007,8 hPa 0,0 mm 0,5 km/h (0 Bft) W-SW 253 0 min 0 UV-I 0 W/m 4,8 km/h (1 Bft)
21.07.2010 22:10 24,8 C 55 % 1008,0 hPa 0,0 mm 2,3 km/h (1 Bft) W 259 0 min 0 UV-I 0 W/m 8,0 km/h (2 Bft)
21.07.2010 22:20 24,7 C 55 % 1008,5 hPa 0,0 mm 2,3 km/h (1 Bft) W-SW 254 0 min 0 UV-I 0 W/m 11,3 km/h (2 Bft)
21.07.2010 22:30 24,6 C 56 % 1008,8 hPa 0,0 mm 4,3 km/h (1 Bft) W 279 0 min 0 UV-I 0 W/m 11,3 km/h (2 Bft)
21.07.2010 22:40 24,3 C 59 % 1008,8 hPa 0,0 mm 4,7 km/h (1 Bft) W-SW 258 0 min 0 UV-I 0 W/m 11,3 km/h (2 Bft)
21.07.2010 22:50 23,8 C 62 % 1008,9 hPa 0,0 mm 3,1 km/h (1 Bft) SW 234 0 min 0 UV-I 0 W/m 12,9 km/h (3 Bft)
21.07.2010 23:00 23,2 C 66 % 1008,9 hPa 0,0 mm 1,3 km/h (1 Bft) W 273 0 min 0 UV-I 0 W/m 9,7 km/h (2 Bft)
21.07.2010 23:10 22,7 C 68 % 1009,0 hPa 0,0 mm 0,8 km/h (0 Bft) W-SW 240 0 min 0 UV-I 0 W/m 6,4 km/h (2 Bft)
21.07.2010 23:20 22,3 C 70 % 1009,0 hPa 0,0 mm 2,4 km/h (1 Bft) W-SW 246 0 min 0 UV-I 0 W/m 8,0 km/h (2 Bft)
21.07.2010 23:30 22,0 C 72 % 1009,4 hPa 0,0 mm 3,6 km/h (1 Bft) W 277 0 min 0 UV-I 0 W/m 11,3 km/h (2 Bft)
21.07.2010 23:40 21,8 C 73 % 1009,4 hPa 0,0 mm 1,6 km/h (1 Bft) W 270 0 min 0 UV-I 0 W/m 8,0 km/h (2 Bft)
21.07.2010 23:50 21,6 C 74 % 1009,5 hPa 0,0 mm 3,2 km/h (1 Bft) W 270 0 min 0 UV-I 0 W/m 14,5 km/h (3 Bft)
_ Min-Zeit 04:50 15:00 14:30 - 00:00 - - - - - 04:10
Minimum _ 18,4 C 32 % 1004,7 hPa - 0,0 km/h (0 Bft) - - - - - 0,0 km/h (0 Bft)
_ Max-Zeit 15:00 23:50 00:00 00:00 16:00 - - 07:00 13:10 14:20 17:20
Maximum _ 34,3 C 74 % 1009,5 hPa 0,0 mm 14,5 km/h
W-SW (3 Bft)
- - 10 min 7 UV-I 951 W/m 25,7 km/h
W (4 Bft)
Durchschnitt _ 25,7 C 51 % 1006,8 hPa #0,0 mm 2,6 km/h (1 Bft) O-SO - #9:10 h 4 UV-I 414 W/m 9,8 km/h (2 Bft)